Time;durP1;ratioP1;P1;durP2;ratioP2;P2;SDS_P1;SDS_P2;PMS_P1;PMS_P2;Temp;Humidity;BMP_temperature;BMP_pressure;BME280_temperature;BME280_humidity;BME280_pressure;Samples;Min_cycle;Max_cycle;Signal;HPM_P1;HPM_P2
2022/04/07 00:00:47;;;;;;;18.92;10.20;;;;;;;10.71;68.84;98769.44;4898470;29;20080;-84
2022/04/07 00:03:16;;;;;;;17.45;10.43;;;;;;;10.74;68.47;98769.22;4898737;29;20037;-83
2022/04/07 00:05:45;;;;;;;16.83;9.32;;;;;;;10.61;68.57;98766.72;4898553;29;20131;-83
2022/04/07 00:08:13;;;;;;;16.63;10.00;;;;;;;10.48;68.90;98763.38;4898270;29;20049;-84
2022/04/07 00:10:42;;;;;;;17.63;9.98;;;;;;;10.26;69.86;98753.66;4898351;29;20113;-84
2022/04/07 00:13:10;;;;;;;14.98;8.82;;;;;;;10.41;68.42;98751.53;4898359;29;20571;-83
2022/04/07 00:15:38;;;;;;;17.15;9.50;;;;;;;10.31;69.53;98746.97;4898566;29;20116;-83
2022/04/07 00:18:06;;;;;;;13.52;8.57;;;;;;;10.37;68.14;98739.44;4898116;29;20045;-84
2022/04/07 00:20:37;;;;;;;16.23;9.15;;;;;;;10.42;67.72;98745.22;4898373;29;20052;-81
2022/04/07 00:23:05;;;;;;;14.15;8.48;;;;;;;10.43;67.60;98741.63;4898245;29;20143;-81
2022/04/07 00:25:33;;;;;;;16.98;8.68;;;;;;;10.30;68.68;98737.28;4898417;29;20124;-80
2022/04/07 00:28:01;;;;;;;17.42;9.23;;;;;;;10.36;70.03;98733.28;4898127;29;20135;-80
2022/04/07 00:30:30;;;;;;;18.52;8.93;;;;;;;10.37;68.43;98729.63;4898274;29;20080;-81
2022/04/07 00:32:58;;;;;;;20.27;9.07;;;;;;;10.49;67.37;98727.75;4897788;29;20070;-81
2022/04/07 00:35:27;;;;;;;16.13;8.60;;;;;;;10.57;66.40;98725.28;4898381;29;20048;-81
2022/04/07 00:37:56;;;;;;;16.70;8.02;;;;;;;10.49;66.62;98727.75;4898000;29;20490;-81
2022/04/07 00:40:25;;;;;;;18.33;9.30;;;;;;;10.41;66.53;98722.22;4898505;29;20044;-79
2022/04/07 00:42:53;;;;;;;17.92;9.38;;;;;;;10.38;66.81;98725.16;4898945;29;20104;-78
2022/04/07 00:45:23;;;;;;;15.60;8.88;;;;;;;10.49;66.09;98717.94;4901578;29;20096;-77
2022/04/07 00:47:52;;;;;;;19.65;10.10;;;;;;;10.50;66.63;98719.63;4901516;29;20052;-77
2022/04/07 00:50:21;;;;;;;15.88;9.90;;;;;;;10.27;68.33;98718.88;4901421;29;20040;-78
2022/04/07 00:52:53;;;;;;;17.25;10.15;;;;;;;10.12;69.82;98720.13;4901780;29;20117;-76
2022/04/07 00:55:22;;;;;;;18.42;10.50;;;;;;;10.15;70.55;98713.72;4901906;29;20045;-79
2022/04/07 00:57:51;;;;;;;16.52;10.27;;;;;;;9.85;72.39;98711.75;4901741;29;20409;-81
2022/04/07 01:00:19;;;;;;;19.90;10.35;;;;;;;9.68;73.73;98715.78;4901143;29;20044;-77
2022/04/07 01:02:47;;;;;;;18.40;10.23;;;;;;;9.66;74.61;98707.06;4884792;29;20053;-78
2022/04/07 01:05:23;;;;;;;18.83;10.25;;;;;;;9.82;73.84;98698.66;4901533;29;20052;-78
2022/04/07 01:07:52;;;;;;;17.08;10.23;;;;;;;9.80;73.38;98693.47;4901360;29;20048;-76
2022/04/07 01:10:23;;;;;;;18.08;10.30;;;;;;;9.47;75.11;98697.06;4901490;29;20127;-78
2022/04/07 01:12:52;;;;;;;18.55;10.38;;;;;;;9.66;74.45;98691.09;4901478;29;20049;-78
2022/04/07 01:15:20;;;;;;;23.02;10.80;;;;;;;9.68;74.59;98689.16;4901529;29;20049;-78
2022/04/07 01:17:49;;;;;;;17.63;10.38;;;;;;;9.69;74.60;98691.69;4901496;29;20076;-80
2022/04/07 01:20:17;;;;;;;20.13;11.55;;;;;;;9.69;74.74;98697.00;4901239;29;20048;-78
2022/04/07 01:22:47;;;;;;;16.60;10.15;;;;;;;9.58;75.31;98702.34;4901664;29;20482;-78
2022/04/07 01:25:17;;;;;;;17.13;10.55;;;;;;;9.40;75.67;98690.53;4901181;29;20128;-78
2022/04/07 01:27:48;;;;;;;17.52;10.65;;;;;;;9.64;75.04;98685.88;4901527;29;20480;-78
2022/04/07 01:30:17;;;;;;;18.02;10.35;;;;;;;9.53;74.86;98688.56;4900796;29;20051;-77
2022/04/07 01:32:48;;;;;;;16.00;10.25;;;;;;;9.43;75.00;98682.28;4901042;29;20056;-76
2022/04/07 01:35:17;;;;;;;17.55;10.57;;;;;;;9.50;75.32;98679.97;4900973;29;20044;-85
2022/04/07 01:37:47;;;;;;;18.65;11.02;;;;;;;9.26;76.30;98670.31;4900978;29;20049;-82
2022/04/07 01:40:21;;;;;;;20.92;10.60;;;;;;;9.07;77.14;98672.75;4901083;29;20092;-84
2022/04/07 01:42:52;;;;;;;17.42;10.77;;;;;;;9.02;77.20;98667.81;4901076;29;20068;-80
2022/04/07 01:45:21;;;;;;;16.95;10.43;;;;;;;9.13;77.55;98673.13;4884492;29;20379;-80
2022/04/07 01:47:52;;;;;;;19.55;11.25;;;;;;;9.21;76.99;98664.53;4900772;29;20135;-81
2022/04/07 01:50:21;;;;;;;16.98;10.50;;;;;;;9.15;77.55;98660.53;4900748;29;20088;-82
2022/04/07 01:52:50;;;;;;;17.55;10.93;;;;;;;9.12;77.92;98663.44;4900526;29;20056;-79
2022/04/07 01:55:19;;;;;;;20.30;10.68;;;;;;;9.20;76.36;98667.31;4899340;29;20057;-81
2022/04/07 01:57:48;;;;;;;20.25;11.60;;;;;;;8.89;77.82;98664.44;4900408;29;20093;-82
2022/04/07 02:00:17;;;;;;;17.67;10.25;;;;;;;9.01;76.90;98667.94;4883735;29;20079;-84
2022/04/07 02:02:46;;;;;;;19.90;10.40;;;;;;;9.00;76.90;98661.75;4900776;29;20071;-84
2022/04/07 02:05:15;;;;;;;19.75;10.63;;;;;;;9.08;77.15;98654.03;4900277;29;20048;-85
2022/04/07 02:07:44;;;;;;;15.80;10.40;;;;;;;9.00;77.23;98655.59;4883487;29;20051;-83
2022/04/07 02:10:14;;;;;;;16.67;10.18;;;;;;;8.98;77.33;98657.53;4899590;29;20097;-79
2022/04/07 02:12:44;;;;;;;20.60;11.55;;;;;;;8.98;77.70;98646.91;4900915;29;20459;-78
2022/04/07 02:15:13;;;;;;;19.20;11.25;;;;;;;8.99;77.60;98646.78;4900081;29;20048;-79
2022/04/07 02:17:41;;;;;;;21.80;11.05;;;;;;;9.06;77.56;98647.13;4900263;29;20040;-80
2022/04/07 02:20:11;;;;;;;19.00;11.85;;;;;;;9.02;77.83;98658.97;4899715;29;20395;-78
2022/04/07 02:22:39;;;;;;;17.77;10.85;;;;;;;8.95;78.47;98650.63;4899897;29;20049;-81
2022/04/07 02:25:09;;;;;;;19.88;11.10;;;;;;;8.97;78.77;98646.03;4900113;29;20446;-79
2022/04/07 02:27:39;;;;;;;18.88;11.23;;;;;;;9.01;78.96;98639.53;4899878;29;20479;-78
2022/04/07 02:30:11;;;;;;;18.15;10.57;;;;;;;9.15;77.75;98631.28;4899776;29;20127;-79
2022/04/07 02:32:40;;;;;;;17.92;10.88;;;;;;;8.96;78.97;98623.06;4900099;29;20051;-79
2022/04/07 02:35:10;;;;;;;19.00;11.02;;;;;;;8.94;79.45;98614.38;4899712;29;20487;-79
2022/04/07 02:37:38;;;;;;;16.52;10.88;;;;;;;8.97;79.50;98608.81;4899913;29;20475;-79
2022/04/07 02:40:07;;;;;;;18.55;10.60;;;;;;;8.98;79.41;98605.19;4899903;29;20044;-83
2022/04/07 02:42:36;;;;;;;18.88;10.82;;;;;;;8.83;80.13;98595.78;4899646;29;20483;-81
2022/04/07 02:45:05;;;;;;;21.38;11.75;;;;;;;8.87;80.05;98591.88;4899352;29;20051;-82
2022/04/07 02:47:38;;;;;;;20.52;11.00;;;;;;;8.91;79.71;98582.72;4899816;29;20045;-83
2022/04/07 02:50:07;;;;;;;17.77;10.82;;;;;;;8.77;80.76;98585.59;4899356;29;20048;-82
2022/04/07 02:52:36;;;;;;;18.77;11.25;;;;;;;8.77;80.79;98577.63;4899353;29;20051;-81
2022/04/07 02:55:06;;;;;;;15.07;10.25;;;;;;;8.75;80.22;98572.44;4899564;29;20525;-81
2022/04/07 02:57:34;;;;;;;20.23;10.95;;;;;;;8.82;80.47;98570.16;4899292;29;20514;-82
2022/04/07 03:00:04;;;;;;;18.35;10.20;;;;;;;8.83;80.09;98569.19;4899298;29;20044;-82
2022/04/07 03:02:32;;;;;;;16.48;9.85;;;;;;;8.78;79.88;98566.91;4899585;29;20070;-77
2022/04/07 03:05:02;;;;;;;19.23;10.52;;;;;;;8.82;79.51;98567.50;4899198;29;20049;-81
2022/04/07 03:07:30;;;;;;;20.63;9.70;;;;;;;8.80;79.59;98564.13;4899076;29;20059;-86
2022/04/07 03:09:58;;;;;;;13.65;8.65;;;;;;;8.83;79.14;98563.88;4899049;29;20087;-83
2022/04/07 03:12:27;;;;;;;14.57;7.93;;;;;;;8.98;78.11;98567.97;4899119;29;20073;-83
2022/04/07 03:14:55;;;;;;;14.63;8.52;;;;;;;8.92;78.33;98565.78;4899249;29;20100;-79
2022/04/07 03:17:23;;;;;;;20.15;8.95;;;;;;;8.83;79.87;98556.72;4899049;29;20127;-81
2022/04/07 03:19:51;;;;;;;16.52;9.45;;;;;;;8.81;80.92;98539.22;4898546;29;20455;-83
2022/04/07 03:22:21;;;;;;;19.58;10.23;;;;;;;8.77;81.30;98543.91;4881621;29;20059;-82
2022/04/07 03:24:49;;;;;;;16.30;9.93;;;;;;;8.93;80.77;98537.38;4899173;29;20044;-82
2022/04/07 03:27:18;;;;;;;16.08;9.85;;;;;;;8.85;80.32;98538.00;4899063;29;20040;-80
2022/04/07 03:29:46;;;;;;;21.65;10.25;;;;;;;8.79;80.90;98535.84;4898933;29;20142;-77
2022/04/07 03:32:14;;;;;;;16.77;9.52;;;;;;;8.72;80.75;98529.31;4898679;29;20049;-79
2022/04/07 03:34:42;;;;;;;16.48;9.38;;;;;;;8.80;80.20;98522.44;4899136;29;20063;-79
2022/04/07 03:37:11;;;;;;;14.80;9.52;;;;;;;8.38;83.45;98518.69;4898803;29;20052;-79
2022/04/07 03:39:40;;;;;;;15.48;9.38;;;;;;;8.42;83.52;98512.19;4898589;29;20041;-78
2022/04/07 03:42:09;;;;;;;14.30;8.93;;;;;;;8.41;83.38;98510.50;4898285;29;20100;-81
2022/04/07 03:44:37;;;;;;;16.63;9.85;;;;;;;8.38;83.70;98515.19;4898878;29;20555;-80
2022/04/07 03:47:06;;;;;;;17.92;10.00;;;;;;;8.46;84.23;98518.09;4898636;29;20045;-78
2022/04/07 03:49:34;;;;;;;14.32;8.95;;;;;;;8.47;83.72;98509.16;4899289;29;20108;-78
2022/04/07 03:52:03;;;;;;;16.48;8.85;;;;;;;8.66;82.32;98508.53;4898688;29;20045;-80
2022/04/07 03:54:31;;;;;;;13.32;8.85;;;;;;;8.58;83.31;98507.31;4898633;29;20469;-79
2022/04/07 03:57:01;;;;;;;14.98;9.70;;;;;;;8.61;83.03;98516.88;4881874;29;20104;-79
2022/04/07 03:59:33;;;;;;;14.65;8.93;;;;;;;8.76;82.18;98525.44;4898508;29;20121;-81
2022/04/07 04:02:01;;;;;;;15.27;9.65;;;;;;;8.78;81.76;98510.19;4898509;29;20052;-78
2022/04/07 04:04:29;;;;;;;17.88;10.38;;;;;;;8.72;82.33;98502.75;4898421;29;20131;-80
2022/04/07 04:06:58;;;;;;;21.17;11.45;;;;;;;8.59;83.76;98502.88;4898470;29;20473;-80
2022/04/07 04:09:26;;;;;;;27.45;13.50;;;;;;;8.67;83.53;98504.91;4898139;29;20044;-79
2022/04/07 04:11:54;;;;;;;28.73;13.10;;;;;;;8.60;83.75;98508.06;4898393;29;20049;-81
2022/04/07 04:14:24;;;;;;;27.02;13.35;;;;;;;8.59;84.00;98498.41;4881432;29;20059;-82
2022/04/07 04:16:54;;;;;;;25.70;11.65;;;;;;;8.73;83.37;98499.09;4898276;29;20052;-83
2022/04/07 04:19:22;;;;;;;24.65;11.80;;;;;;;8.67;83.37;98499.59;4901510;29;20079;-82
2022/04/07 04:21:51;;;;;;;20.38;11.38;;;;;;;8.64;84.19;98515.78;4902240;29;20513;-82
2022/04/07 04:24:19;;;;;;;20.30;10.55;;;;;;;8.68;83.67;98509.25;4902122;29;20052;-83
2022/04/07 04:26:47;;;;;;;19.17;10.52;;;;;;;8.71;83.49;98507.22;4901970;29;20083;-84
2022/04/07 04:29:15;;;;;;;20.90;10.25;;;;;;;8.80;83.08;98508.28;4901933;29;20068;-82
2022/04/07 04:31:45;;;;;;;18.92;10.45;;;;;;;8.73;83.23;98505.28;4902175;29;20076;-83
2022/04/07 04:34:14;;;;;;;14.18;8.80;;;;;;;8.71;82.88;98512.53;4884876;29;20407;-80
2022/04/07 04:36:42;;;;;;;21.35;9.95;;;;;;;8.60;84.52;98513.38;4901987;29;20112;-81
2022/04/07 04:39:10;;;;;;;15.57;10.07;;;;;;;8.65;83.75;98514.81;4901735;29;20052;-81
2022/04/07 04:41:38;;;;;;;19.08;10.15;;;;;;;8.83;82.59;98506.22;4901796;29;20051;-78
2022/04/07 04:44:06;;;;;;;20.33;9.57;;;;;;;8.79;82.80;98494.16;4902027;29;20040;-77
2022/04/07 04:46:35;;;;;;;17.10;10.00;;;;;;;8.80;82.50;98500.31;4901856;29;20075;-78
2022/04/07 04:49:04;;;;;;;15.15;9.35;;;;;;;8.85;82.30;98503.44;4901635;29;20059;-76
2022/04/07 04:51:33;;;;;;;14.68;8.63;;;;;;;8.82;81.99;98501.03;4901572;29;20048;-79
2022/04/07 04:54:01;;;;;;;18.20;9.43;;;;;;;8.80;82.02;98503.81;4901472;29;20076;-76
2022/04/07 04:56:29;;;;;;;17.55;8.40;;;;;;;8.86;80.99;98500.63;4901324;29;20053;-78
2022/04/07 04:58:58;;;;;;;15.48;7.93;;;;;;;8.98;80.12;98501.50;4901860;29;20060;-78
2022/04/07 05:01:27;;;;;;;15.07;8.50;;;;;;;8.94;80.50;98502.69;4900987;29;20082;-83
2022/04/07 05:03:55;;;;;;;16.75;9.05;;;;;;;8.89;81.01;98503.06;4901621;29;20072;-82
2022/04/07 05:06:25;;;;;;;14.80;8.85;;;;;;;8.89;81.14;98504.88;4901212;29;20044;-86
2022/04/07 05:08:53;;;;;;;17.75;9.35;;;;;;;9.01;80.00;98493.25;4901518;29;20060;-86
2022/04/07 05:11:24;;;;;;;17.65;8.63;;;;;;;9.04;80.13;98497.47;4883894;29;20061;-81
2022/04/07 05:13:52;;;;;;;15.70;8.82;;;;;;;9.07;79.41;98492.75;4901417;29;20128;-82
2022/04/07 05:16:21;;;;;;;18.77;9.20;;;;;;;9.10;79.29;98495.16;4901377;29;20041;-84
2022/04/07 05:18:49;;;;;;;19.00;9.65;;;;;;;8.90;80.93;98495.94;4884652;29;20482;-84
2022/04/07 05:21:17;;;;;;;14.25;8.70;;;;;;;9.14;79.95;98487.75;4880919;29;20057;-79
2022/04/07 05:23:47;;;;;;;16.50;9.23;;;;;;;9.25;78.92;98490.38;4882701;29;20045;-89
2022/04/07 05:26:15;;;;;;;19.25;8.20;;;;;;;9.18;79.60;98495.38;4865350;29;20465;-78
2022/04/07 05:28:44;;;;;;;19.48;9.15;;;;;;;9.09;80.40;98493.47;4881777;29;20503;-77
2022/04/07 05:31:12;;;;;;;17.02;8.77;;;;;;;9.28;79.05;98502.59;4886101;29;20135;-78
2022/04/07 05:33:41;;;;;;;15.05;9.20;;;;;;;9.34;79.12;98507.41;4900895;29;20063;-84
2022/04/07 05:36:09;;;;;;;16.65;9.63;;;;;;;9.63;77.88;98516.47;4900988;29;20055;-82
2022/04/07 05:38:37;;;;;;;18.58;9.18;;;;;;;9.63;77.23;98515.63;4900628;29;20049;-77
2022/04/07 05:41:07;;;;;;;17.08;9.20;;;;;;;9.67;76.96;98522.41;4900196;29;20045;-78
2022/04/07 05:43:35;;;;;;;19.85;9.23;;;;;;;9.65;77.83;98522.53;4900428;29;20132;-81
2022/04/07 05:46:03;;;;;;;19.40;9.30;;;;;;;9.64;77.86;98523.47;4900452;29;20048;-79
2022/04/07 05:48:32;;;;;;;23.52;10.35;;;;;;;9.75;77.68;98518.13;4883368;29;20442;-76
2022/04/07 05:51:00;;;;;;;18.00;9.30;;;;;;;10.00;75.72;98513.38;4900202;29;20044;-78
2022/04/07 05:53:29;;;;;;;17.33;8.90;;;;;;;10.06;75.56;98512.00;4900046;29;20056;-76
2022/04/07 05:55:57;;;;;;;18.42;9.10;;;;;;;10.16;74.65;98521.75;4899758;29;20052;-78
2022/04/07 05:58:28;;;;;;;16.38;8.90;;;;;;;10.14;75.35;98515.72;4899968;29;20053;-78
2022/04/07 06:00:56;;;;;;;18.02;9.27;;;;;;;10.28;75.10;98522.53;4900497;29;20044;-77
2022/04/07 06:03:25;;;;;;;24.42;9.52;;;;;;;10.39;74.63;98524.28;4899844;29;20490;-78
2022/04/07 06:05:53;;;;;;;17.90;8.88;;;;;;;10.44;74.34;98522.91;4900180;29;20048;-76
2022/04/07 06:08:22;;;;;;;19.65;9.50;;;;;;;10.49;74.34;98522.50;4900038;29;20442;-77
2022/04/07 06:10:50;;;;;;;13.50;9.38;;;;;;;10.54;75.08;98529.13;4900359;29;20079;-78
2022/04/07 06:13:18;;;;;;;18.75;10.00;;;;;;;10.69;72.95;98537.59;4883290;29;20052;-79
2022/04/07 06:15:48;;;;;;;20.85;9.20;;;;;;;10.63;73.08;98535.47;4899934;29;20051;-76
2022/04/07 06:18:17;;;;;;;15.23;9.07;;;;;;;10.68;73.09;98538.56;4899459;29;20079;-79
2022/04/07 06:20:46;;;;;;;15.93;8.63;;;;;;;10.83;72.42;98539.91;4900062;29;20457;-77
2022/04/07 06:23:16;;;;;;;18.45;8.88;;;;;;;10.93;73.70;98539.09;4899853;29;20054;-79
2022/04/07 06:25:44;;;;;;;15.77;9.00;;;;;;;10.99;72.47;98551.88;4901374;29;20079;-79
2022/04/07 06:28:12;;;;;;;13.43;8.23;;;;;;;11.03;71.17;98553.28;4899927;29;20076;-81
2022/04/07 06:30:40;;;;;;;18.08;8.85;;;;;;;11.08;71.48;98549.22;4899193;29;20063;-81
2022/04/07 06:33:10;;;;;;;15.63;8.68;;;;;;;11.13;71.36;98551.50;4882392;29;20057;-79
2022/04/07 06:35:38;;;;;;;16.75;9.18;;;;;;;11.15;71.64;98549.53;4882671;29;20459;-80
2022/04/07 06:38:06;;;;;;;12.82;7.97;;;;;;;11.27;70.30;98552.91;4899630;29;20052;-80
2022/04/07 06:40:35;;;;;;;13.10;8.23;;;;;;;11.27;70.14;98548.41;4898825;29;20072;-83
2022/04/07 06:43:03;;;;;;;17.40;8.95;;;;;;;11.36;68.77;98552.94;4899837;29;20387;-78
2022/04/07 06:45:31;;;;;;;13.48;8.40;;;;;;;11.61;67.68;98556.06;4882840;29;20135;-77
2022/04/07 06:48:00;;;;;;;19.73;8.82;;;;;;;11.55;67.51;98551.25;4882696;29;20139;-78
2022/04/07 06:50:31;;;;;;;16.05;8.32;;;;;;;11.69;66.75;98554.38;4882146;29;20080;-77
2022/04/07 06:53:01;;;;;;;13.93;8.82;;;;;;;11.67;67.20;98550.97;4899531;29;20483;-77
2022/04/07 06:55:30;;;;;;;11.32;7.50;;;;;;;11.68;66.94;98555.38;4899046;29;20143;-74
2022/04/07 06:58:08;;;;;;;13.82;7.75;;;;;;;11.64;66.72;98558.44;4899392;29;20128;-81
2022/04/07 07:00:44;;;;;;;15.05;8.70;;;;;;;11.62;67.09;98569.25;4899401;29;20068;-85
2022/04/07 07:03:14;;;;;;;15.48;8.00;;;;;;;11.84;65.61;98561.97;4882431;29;20056;-78
2022/04/07 07:05:44;;;;;;;13.23;7.70;;;;;;;11.74;65.39;98573.47;4878321;29;20076;-83
2022/04/07 07:08:17;;;;;;;11.52;7.40;;;;;;;11.63;66.08;98581.63;4862956;29;20140;-83
2022/04/07 07:10:48;;;;;;;13.98;7.72;;;;;;;11.62;66.27;98589.78;4880050;29;20069;-83
2022/04/07 07:13:17;;;;;;;12.00;7.57;;;;;;;11.85;65.02;98580.53;4880734;29;20049;-81
2022/04/07 07:15:53;;;;;;;18.98;8.45;;;;;;;11.88;65.23;98574.94;4880338;29;20101;-81
2022/04/07 07:18:21;;;;;;;16.48;7.90;;;;;;;11.91;64.35;98579.97;4880305;29;20079;-81
2022/04/07 07:20:51;;;;;;;11.95;7.65;;;;;;;11.97;64.55;98578.59;4880231;29;20060;-82
2022/04/07 07:23:20;;;;;;;14.15;8.02;;;;;;;12.06;64.40;98572.38;4880277;29;20458;-82
2022/04/07 07:25:48;;;;;;;18.13;8.02;;;;;;;12.10;63.91;98576.47;4880186;29;20049;-83
2022/04/07 07:28:16;;;;;;;14.55;7.97;;;;;;;11.98;64.54;98575.78;4879687;29;20060;-83
2022/04/07 07:30:44;;;;;;;15.07;8.30;;;;;;;12.07;63.96;98576.75;4862809;29;20049;-83
2022/04/07 07:33:13;;;;;;;15.77;8.45;;;;;;;12.09;64.17;98576.59;4879927;29;20081;-83
2022/04/07 07:35:42;;;;;;;16.15;7.88;;;;;;;12.16;64.26;98583.91;4879868;29;20045;-83
2022/04/07 07:38:13;;;;;;;18.63;8.77;;;;;;;12.24;63.98;98591.19;4880772;29;20073;-82
2022/04/07 07:40:41;;;;;;;14.90;8.15;;;;;;;12.38;62.81;98600.63;4879697;29;20386;-83
2022/04/07 07:43:09;;;;;;;15.63;8.50;;;;;;;12.26;63.85;98597.28;4879778;29;20104;-83
2022/04/07 07:45:38;;;;;;;13.85;8.57;;;;;;;12.41;63.69;98592.31;4879641;29;20097;-85
2022/04/07 07:48:27;;;;;;;15.40;8.02;;;;;;;12.16;63.89;98597.28;4879829;29;20076;-81
2022/04/07 07:50:56;;;;;;;;;;;;;;;12.00;63.61;98595.16;4878865;29;20396;-82
2022/04/07 07:53:25;;;;;;;11.32;7.80;;;;;;;11.94;64.24;98584.19;4878790;29;19924;-81
2022/04/07 07:55:56;;;;;;;14.77;7.65;;;;;;;12.16;63.82;98597.28;4879472;29;20048;-82
2022/04/07 07:58:25;;;;;;;15.02;7.57;;;;;;;12.44;63.37;98598.19;4878251;29;20072;-83
2022/04/07 08:00:54;;;;;;;13.68;7.00;;;;;;;12.29;63.76;98594.31;4878436;29;20052;-83
2022/04/07 08:03:23;;;;;;;13.35;7.40;;;;;;;12.48;62.96;98591.59;4879470;29;20502;-78
2022/04/07 08:05:51;;;;;;;13.10;6.85;;;;;;;12.43;62.42;98590.31;4879541;29;20053;-83
2022/04/07 08:08:20;;;;;;;12.70;7.13;;;;;;;12.53;62.29;98585.78;4879614;29;20044;-82
2022/04/07 08:10:49;;;;;;;10.07;6.55;;;;;;;12.49;61.86;98590.59;4879662;29;20049;-81
2022/04/07 08:13:18;;;;;;;11.45;6.43;;;;;;;12.54;61.64;98585.63;4862768;29;20139;-82
2022/04/07 08:15:47;;;;;;;13.48;7.30;;;;;;;12.68;61.58;98589.69;4880351;29;20045;-84
2022/04/07 08:18:16;;;;;;;13.27;7.63;;;;;;;12.72;61.33;98584.88;4864347;29;20570;-82
2022/04/07 08:20:45;;;;;;;15.57;7.72;;;;;;;12.80;60.87;98587.69;4878150;29;20061;-82
2022/04/07 08:23:13;;;;;;;10.80;6.70;;;;;;;12.79;61.02;98594.03;4879466;29;20467;-84
2022/04/07 08:25:41;;;;;;;12.50;7.47;;;;;;;12.83;61.68;98595.41;4879251;29;20052;-83
2022/04/07 08:28:12;;;;;;;16.42;7.68;;;;;;;13.11;60.98;98597.13;4879763;29;20117;-83
2022/04/07 08:30:40;;;;;;;13.38;8.00;;;;;;;12.99;61.05;98602.81;4862504;29;20132;-83
2022/04/07 08:33:08;;;;;;;10.63;7.47;;;;;;;13.10;60.49;98606.13;4879368;29;20114;-82
2022/04/07 08:35:37;;;;;;;10.73;7.38;;;;;;;12.86;60.34;98608.50;4878868;29;20148;-83
2022/04/07 08:38:05;;;;;;;14.82;7.50;;;;;;;12.80;61.92;98606.41;4879297;29;20487;-83
2022/04/07 08:40:36;;;;;;;18.02;7.32;;;;;;;13.05;61.28;98607.59;4879019;29;20083;-83
2022/04/07 08:43:04;;;;;;;11.70;6.78;;;;;;;13.00;60.60;98604.50;4879083;29;20059;-83
2022/04/07 08:45:35;;;;;;;11.98;7.18;;;;;;;12.93;60.55;98604.22;4861995;29;20135;-83
2022/04/07 08:48:03;;;;;;;14.50;8.65;;;;;;;12.87;60.99;98607.53;4879263;29;20056;-83
2022/04/07 08:50:34;;;;;;;20.98;14.52;;;;;;;13.14;60.32;98599.50;4862114;29;20081;-81
2022/04/07 08:53:02;;;;;;;26.42;17.40;;;;;;;13.33;59.11;98595.94;4878646;29;20053;-80
2022/04/07 08:55:31;;;;;;;28.85;19.40;;;;;;;13.43;59.69;98596.72;4877948;29;20384;-82
2022/04/07 08:58:00;;;;;;;26.60;17.52;;;;;;;13.40;59.48;98585.44;4879472;29;20064;-83
2022/04/07 09:00:28;;;;;;;17.95;12.07;;;;;;;13.39;58.42;98591.78;4884380;29;20396;-83
2022/04/07 09:02:58;;;;;;;13.43;9.57;;;;;;;13.31;59.21;98581.81;4883402;29;20121;-82
2022/04/07 09:05:33;;;;;;;15.95;9.52;;;;;;;13.48;59.09;98582.00;4885530;29;20045;-83
2022/04/07 09:08:01;;;;;;;15.25;10.73;;;;;;;13.72;59.10;98580.44;4882766;29;20045;-81
2022/04/07 09:10:30;;;;;;;17.13;13.60;;;;;;;13.75;58.66;98574.75;4882338;29;20049;-84
2022/04/07 09:13:03;;;;;;;19.15;13.07;;;;;;;13.81;58.05;98565.28;4882400;29;20045;-82
2022/04/07 09:15:33;;;;;;;14.52;10.18;;;;;;;13.88;57.32;98557.44;4882597;29;20141;-83
2022/04/07 09:18:05;;;;;;;13.95;8.82;;;;;;;14.04;57.45;98565.63;4865520;29;20089;-83
2022/04/07 09:20:43;;;;;;;12.18;7.25;;;;;;;13.92;57.28;98573.09;4882488;29;20121;-83
2022/04/07 09:23:13;;;;;;;11.13;6.47;;;;;;;13.97;56.50;98577.97;4881343;29;20053;-82
2022/04/07 09:25:49;;;;;;;11.02;5.68;;;;;;;13.87;56.98;98571.84;4880977;29;20100;-81
2022/04/07 09:28:30;;;;;;;10.88;6.50;;;;;;;13.99;56.24;98571.47;4882326;29;20056;-82
2022/04/07 09:31:00;;;;;;;11.98;6.85;;;;;;;13.94;57.10;98560.34;4881919;29;20056;-81
2022/04/07 09:33:30;;;;;;;12.60;7.10;;;;;;;13.94;57.24;98567.56;4881958;29;20083;-83
2022/04/07 09:36:00;;;;;;;10.45;6.50;;;;;;;14.14;57.33;98557.50;4882090;29;20045;-82
2022/04/07 09:38:31;;;;;;;13.00;7.25;;;;;;;14.15;56.80;98553.81;4881920;29;20040;-84
2022/04/07 09:41:07;;;;;;;12.48;7.07;;;;;;;14.10;57.82;98567.72;4882044;29;20132;-83
2022/04/07 09:43:48;;;;;;;12.05;7.00;;;;;;;14.06;57.42;98566.31;4881414;29;20135;-81
2022/04/07 09:46:18;;;;;;;13.02;7.28;;;;;;;14.25;57.49;98565.28;4881940;29;20057;-81
2022/04/07 09:49:10;;;;;;;11.02;6.80;;;;;;;14.01;56.87;98569.47;4881249;29;20049;-82
2022/04/07 09:51:40;;;;;;;11.85;7.10;;;;;;;14.12;56.69;98570.22;4880392;29;20136;-83
2022/04/07 09:54:10;;;;;;;11.15;7.30;;;;;;;14.27;56.97;98561.44;4882712;29;20060;-82
2022/04/07 09:56:39;;;;;;;13.73;7.15;;;;;;;14.40;55.94;98554.84;4880365;29;20049;-82
2022/04/07 09:59:08;;;;;;;10.75;6.57;;;;;;;14.50;55.63;98555.63;4881272;29;20049;-83
2022/04/07 10:01:38;;;;;;;9.57;6.68;;;;;;;14.56;54.95;98549.59;4881071;29;20066;-82
2022/04/07 10:04:09;;;;;;;9.55;5.93;;;;;;;14.37;55.65;98544.41;4881599;29;20104;-81
2022/04/07 10:06:38;;;;;;;13.05;6.63;;;;;;;14.40;56.00;98536.06;4881129;29;20253;-83
2022/04/07 10:09:09;;;;;;;10.02;6.43;;;;;;;14.23;56.06;98548.53;4881559;29;20431;-81
2022/04/07 10:11:37;;;;;;;10.07;6.65;;;;;;;14.09;56.78;98544.59;4881351;29;20048;-83
2022/04/07 10:14:06;;;;;;;12.45;7.30;;;;;;;14.09;57.63;98539.22;4881488;29;20057;-82
2022/04/07 10:16:45;;;;;;;11.57;7.03;;;;;;;14.31;56.80;98538.69;4880431;29;20113;-85
2022/04/07 10:19:21;;;;;;;9.35;6.45;;;;;;;14.45;56.44;98533.78;4864615;29;20048;-83
2022/04/07 10:22:05;;;;;;;12.50;6.68;;;;;;;14.40;56.32;98544.13;4881197;29;20079;-83
2022/04/07 10:24:37;;;;;;;12.00;6.97;;;;;;;14.69;56.32;98547.34;4880846;29;20101;-79
2022/04/07 10:27:29;;;;;;;14.52;7.53;;;;;;;14.68;56.89;98532.25;4881326;29;20049;-83
2022/04/07 10:30:06;;;;;;;11.52;6.95;;;;;;;15.10;55.88;98542.16;4883642;29;20051;-82
2022/04/07 10:32:40;;;;;;;11.32;6.82;;;;;;;15.14;55.20;98535.44;4881323;29;20117;-83
2022/04/07 10:35:10;;;;;;;10.65;7.18;;;;;;;15.16;54.92;98531.59;4862300;29;20072;-83
2022/04/07 10:37:46;;;;;;;11.38;7.43;;;;;;;15.06;55.50;98527.38;4878307;29;20086;-82
2022/04/07 10:40:34;;;;;;;13.80;7.20;;;;;;;14.78;55.74;98529.44;4861602;29;20061;-82
2022/04/07 10:43:09;;;;;;;9.00;6.63;;;;;;;14.91;55.19;98528.97;4862750;29;20124;-81
2022/04/07 10:45:39;;;;;;;11.88;7.15;;;;;;;15.06;55.08;98516.63;4862186;29;20049;-82
2022/04/07 10:48:23;;;;;;;13.95;7.95;;;;;;;15.14;54.60;98514.78;4876845;29;20136;-83
2022/04/07 10:50:56;;;;;;;11.95;7.43;;;;;;;14.81;55.94;98508.47;4876982;29;20172;-82
2022/04/07 10:53:26;;;;;;;10.93;7.78;;;;;;;14.98;55.61;98508.56;4862808;29;20110;-84
2022/04/07 10:56:00;;;;;;;11.13;7.32;;;;;;;15.08;55.36;98509.25;4862093;29;20407;-84
2022/04/07 10:58:50;;;;;;;11.07;7.88;;;;;;;15.00;55.66;98507.38;4861004;29;20495;-82
2022/04/07 11:01:59;;;;;;;12.57;7.50;;;;;;;14.86;55.72;98506.16;4888251;29;20054;-83
2022/04/07 11:04:47;;;;;;;13.82;7.43;;;;;;;15.10;54.36;98494.66;4874050;29;20049;-83
2022/04/07 11:07:22;;;;;;;12.95;7.78;;;;;;;14.92;54.84;98490.41;4868231;29;20132;-83
2022/04/07 11:10:03;;;;;;;11.05;6.95;;;;;;;15.30;54.55;98492.53;4872752;29;20050;-83
2022/04/07 11:12:48;;;;;;;11.70;7.10;;;;;;;15.27;54.26;98487.50;4871833;29;20072;-84
2022/04/07 11:15:24;;;;;;;14.15;7.60;;;;;;;15.29;54.29;98490.00;4857317;29;20475;-83
2022/04/07 11:17:54;;;;;;;10.35;7.47;;;;;;;15.45;53.58;98490.03;4860499;29;20057;-81
2022/04/07 11:20:23;;;;;;;12.13;8.23;;;;;;;15.79;53.26;98486.38;4861747;29;20084;-80
2022/04/07 11:22:54;;;;;;;18.30;7.90;;;;;;;15.70;53.49;98485.53;4861748;29;20069;-83
2022/04/07 11:25:25;;;;;;;11.98;7.70;;;;;;;15.72;52.63;98488.91;4861558;29;20074;-81
2022/04/07 11:28:12;;;;;;;12.73;7.63;;;;;;;15.81;52.58;98490.59;4859644;29;20060;-83
2022/04/07 11:30:42;;;;;;;13.48;7.60;;;;;;;16.00;51.96;98479.47;4861119;29;20042;-81
2022/04/07 11:33:39;;;;;;;14.90;7.18;;;;;;;15.91;52.73;98475.13;4865596;29;20057;-82
2022/04/07 11:36:34;;;;;;;13.63;7.60;;;;;;;15.95;51.84;98476.47;4878700;29;20152;-81
2022/04/07 11:39:04;;;;;;;13.68;7.78;;;;;;;15.85;52.33;98465.06;4879852;29;20041;-82
2022/04/07 11:41:41;;;;;;;12.43;7.38;;;;;;;16.05;51.76;98468.22;4879976;29;20096;-82